createdAt,value
2023-05-25T00:01:16.161Z,11.73
2023-05-25T00:03:43.317Z,11.95
2023-05-25T00:06:10.456Z,8.70
2023-05-25T00:08:37.300Z,10.27
2023-05-25T00:11:04.284Z,7.60
2023-05-25T00:13:32.492Z,11.50
2023-05-25T00:15:59.320Z,13.80
2023-05-25T00:18:26.277Z,8.68
2023-05-25T00:20:53.121Z,10.40
2023-05-25T00:23:20.031Z,10.13
2023-05-25T00:25:47.045Z,8.15
2023-05-25T00:28:14.005Z,8.80
2023-05-25T00:30:43.085Z,10.43
2023-05-25T00:33:10.035Z,9.00
2023-05-25T00:35:37.030Z,11.68
2023-05-25T00:38:03.880Z,8.98
2023-05-25T00:40:30.724Z,8.82
2023-05-25T00:42:59.216Z,10.75
2023-05-25T00:45:26.067Z,12.88
2023-05-25T00:47:55.071Z,8.70
2023-05-25T00:50:36.899Z,12.23
2023-05-25T00:53:04.047Z,11.77
2023-05-25T00:55:33.531Z,9.23
2023-05-25T00:58:03.618Z,8.32
2023-05-25T01:00:32.527Z,7.85
2023-05-25T01:03:04.434Z,12.52
2023-05-25T01:05:34.039Z,9.40
2023-05-25T01:08:02.910Z,11.48
2023-05-25T01:10:32.963Z,10.15
2023-05-25T01:13:02.024Z,10.20
2023-05-25T01:15:30.340Z,10.80
2023-05-25T01:17:57.928Z,9.30
2023-05-25T01:20:26.348Z,12.82
2023-05-25T01:22:59.668Z,12.20
2023-05-25T01:25:37.299Z,10.52
2023-05-25T01:28:07.467Z,10.80
2023-05-25T01:30:36.476Z,11.55
2023-05-25T01:33:04.677Z,7.28
2023-05-25T01:35:31.824Z,11.85
2023-05-25T01:38:00.873Z,8.63
2023-05-25T01:40:30.976Z,10.02
2023-05-25T01:42:57.969Z,7.53
2023-05-25T01:45:25.167Z,10.10
2023-05-25T01:48:01.475Z,10.85
2023-05-25T01:50:36.511Z,13.45
2023-05-25T01:53:08.862Z,14.43
2023-05-25T01:55:40.501Z,14.00
2023-05-25T01:58:09.424Z,13.35
2023-05-25T02:00:37.746Z,9.68
2023-05-25T02:03:04.927Z,10.43
2023-05-25T02:05:31.900Z,13.68
2023-05-25T02:07:58.806Z,10.70
2023-05-25T02:10:27.025Z,12.18
2023-05-25T02:12:53.871Z,10.82
2023-05-25T02:15:21.651Z,12.63
2023-05-25T02:17:48.624Z,16.20
2023-05-25T02:20:15.544Z,14.68
2023-05-25T02:22:42.445Z,11.95
2023-05-25T02:25:09.744Z,14.25
2023-05-25T02:27:38.034Z,12.05
2023-05-25T02:30:06.252Z,14.10
2023-05-25T02:32:33.111Z,13.77
2023-05-25T02:35:00.330Z,11.93
2023-05-25T02:37:27.341Z,14.85
2023-05-25T02:39:54.139Z,12.10
2023-05-25T02:42:20.919Z,14.18
2023-05-25T02:44:49.151Z,13.75
2023-05-25T02:47:15.972Z,17.77
2023-05-25T02:49:42.760Z,13.85
2023-05-25T02:52:09.653Z,14.43
2023-05-25T02:54:36.553Z,14.55
2023-05-25T02:57:03.547Z,17.60
2023-05-25T02:59:30.730Z,13.20
2023-05-25T03:01:59.482Z,17.02
2023-05-25T03:04:26.432Z,13.27
2023-05-25T03:06:57.896Z,16.48
2023-05-25T03:09:24.789Z,14.63
2023-05-25T03:11:51.669Z,13.55
2023-05-25T03:14:18.680Z,16.48
2023-05-25T03:16:45.639Z,13.93
2023-05-25T03:19:14.123Z,19.10
2023-05-25T03:21:41.012Z,13.73
2023-05-25T03:24:08.175Z,19.45
2023-05-25T03:26:34.985Z,13.50
2023-05-25T03:29:01.795Z,17.60
2023-05-25T03:31:28.625Z,13.68
2023-05-25T03:33:55.498Z,12.20
2023-05-25T03:36:23.683Z,13.77
2023-05-25T03:38:50.531Z,14.63
2023-05-25T03:41:17.531Z,15.02
2023-05-25T03:43:44.509Z,12.63
2023-05-25T03:46:11.335Z,11.73
2023-05-25T03:48:38.197Z,18.90
2023-05-25T03:51:05.403Z,19.17
2023-05-25T03:53:33.605Z,12.85
2023-05-25T03:56:00.638Z,13.80
2023-05-25T03:58:27.429Z,14.18
2023-05-25T04:00:54.257Z,11.93
2023-05-25T04:03:21.171Z,14.38
2023-05-25T04:05:48.297Z,13.07
2023-05-25T04:08:17.796Z,16.50
2023-05-25T04:10:46.894Z,13.65
2023-05-25T04:13:13.910Z,12.52
2023-05-25T04:15:40.912Z,13.93
2023-05-25T04:18:07.821Z,11.60
2023-05-25T04:20:34.693Z,14.85
2023-05-25T04:23:01.693Z,13.20
2023-05-25T04:25:43.268Z,11.65
2023-05-25T04:28:11.467Z,11.60
2023-05-25T04:30:38.484Z,13.75
2023-05-25T04:33:05.492Z,12.13
2023-05-25T04:35:32.295Z,17.17
2023-05-25T04:37:59.110Z,9.98
2023-05-25T04:40:25.895Z,11.55
2023-05-25T04:42:52.734Z,13.48
2023-05-25T04:45:20.982Z,13.20
2023-05-25T04:47:47.909Z,11.85
2023-05-25T04:50:14.777Z,11.27
2023-05-25T04:52:41.609Z,13.93
2023-05-25T04:55:09.210Z,13.05
2023-05-25T04:57:36.134Z,13.35
2023-05-25T05:00:03.224Z,15.27
2023-05-25T05:02:31.496Z,13.98
2023-05-25T05:04:58.382Z,10.98
2023-05-25T05:07:25.241Z,12.82
2023-05-25T05:09:52.194Z,15.45
2023-05-25T05:12:19.199Z,14.23
2023-05-25T05:14:46.057Z,14.32
2023-05-25T05:17:13.112Z,16.05
2023-05-25T05:19:41.450Z,15.63
2023-05-25T05:22:08.945Z,14.88
2023-05-25T05:24:35.954Z,16.75
2023-05-25T05:27:04.685Z,11.35
2023-05-25T05:29:31.878Z,14.95
2023-05-25T05:31:59.064Z,17.23
2023-05-25T05:34:26.524Z,16.40
2023-05-25T05:36:58.417Z,14.57
2023-05-25T05:39:26.308Z,12.80
2023-05-25T05:41:53.434Z,14.73
2023-05-25T05:44:21.729Z,13.93
2023-05-25T05:46:48.986Z,12.50
2023-05-25T05:49:16.053Z,11.60
2023-05-25T05:51:43.027Z,12.07
2023-05-25T05:54:11.430Z,16.15
2023-05-25T05:56:38.350Z,14.75
2023-05-25T05:59:05.386Z,12.23
2023-05-25T06:01:32.506Z,12.13
2023-05-25T06:03:59.409Z,13.43
2023-05-25T06:06:26.446Z,12.20
2023-05-25T06:08:53.408Z,14.95
2023-05-25T06:11:21.668Z,12.05
2023-05-25T06:13:48.655Z,15.07
2023-05-25T06:16:15.838Z,12.85
2023-05-25T06:18:43.033Z,19.05
2023-05-25T06:21:10.709Z,15.68
2023-05-25T06:23:38.386Z,15.07
2023-05-25T06:26:06.242Z,14.38
2023-05-25T06:28:34.636Z,13.27
2023-05-25T06:31:01.670Z,14.70
2023-05-25T06:33:28.660Z,13.40
2023-05-25T06:35:56.341Z,10.95
2023-05-25T06:38:23.291Z,12.52
2023-05-25T06:40:50.812Z,15.98
2023-05-25T06:43:17.823Z,14.68
2023-05-25T06:45:46.633Z,13.45
2023-05-25T06:48:13.934Z,12.63
2023-05-25T06:50:40.908Z,11.98
2023-05-25T06:53:07.834Z,10.80
2023-05-25T06:55:34.778Z,13.25
2023-05-25T07:00:43.316Z,12.13
2023-05-25T07:03:13.140Z,9.32
2023-05-25T07:05:40.164Z,13.90
2023-05-25T07:08:07.095Z,11.35
2023-05-25T07:10:34.452Z,14.07
2023-05-25T07:13:01.278Z,18.45
2023-05-25T07:15:28.123Z,11.35
2023-05-25T07:17:55.279Z,14.05
2023-05-25T07:20:23.768Z,17.55
2023-05-25T07:22:51.266Z,14.20
2023-05-25T07:25:18.419Z,12.00
2023-05-25T07:27:48.859Z,11.30
2023-05-25T07:30:16.450Z,15.75
2023-05-25T07:32:44.418Z,13.50
2023-05-25T07:35:11.266Z,12.88
2023-05-25T07:37:40.199Z,11.82
2023-05-25T07:40:08.300Z,14.48
2023-05-25T07:42:35.182Z,13.77
2023-05-25T07:45:02.542Z,13.48
2023-05-25T07:47:29.759Z,12.25
2023-05-25T07:49:56.937Z,14.20
2023-05-25T07:52:23.913Z,15.63
2023-05-25T07:54:52.539Z,12.43
2023-05-25T07:57:19.414Z,10.55
2023-05-25T07:59:46.225Z,11.23
2023-05-25T08:02:13.272Z,11.10
2023-05-25T08:04:40.281Z,13.70
2023-05-25T08:07:07.489Z,11.07
2023-05-25T08:09:34.408Z,9.77
2023-05-25T08:12:21.851Z,15.57
2023-05-25T08:14:49.758Z,9.70
2023-05-25T08:17:16.738Z,12.05
2023-05-25T08:19:43.657Z,12.43
2023-05-25T08:22:10.524Z,11.73
2023-05-25T08:24:37.396Z,11.40
2023-05-25T08:27:05.928Z,12.43
2023-05-25T08:29:32.878Z,11.68
2023-05-25T08:31:59.781Z,12.38
2023-05-25T08:34:26.862Z,10.77
2023-05-25T08:36:53.748Z,9.85
2023-05-25T08:39:20.654Z,9.65
2023-05-25T08:41:49.694Z,12.93
2023-05-25T08:44:18.327Z,11.38
2023-05-25T08:46:47.251Z,13.70
2023-05-25T08:49:15.309Z,10.88
2023-05-25T08:51:46.652Z,10.18
2023-05-25T08:54:14.040Z,10.90
2023-05-25T08:56:48.986Z,12.27
2023-05-25T08:59:28.378Z,11.30
2023-05-25T09:02:04.396Z,10.10
2023-05-25T09:04:34.086Z,9.85
2023-05-25T09:07:09.549Z,10.95
2023-05-25T09:12:20.302Z,10.88
2023-05-25T09:14:48.634Z,9.55
2023-05-25T09:17:17.990Z,8.85
2023-05-25T09:19:46.777Z,11.35
2023-05-25T09:22:16.798Z,11.65
2023-05-25T09:24:45.297Z,9.80
2023-05-25T09:27:13.464Z,8.77
2023-05-25T09:29:40.885Z,9.95
2023-05-25T09:32:09.615Z,9.20
2023-05-25T09:34:36.493Z,8.50
2023-05-25T09:37:04.558Z,10.65
2023-05-25T09:39:31.778Z,9.82
2023-05-25T09:41:59.291Z,8.23
2023-05-25T09:44:27.290Z,11.45
2023-05-25T09:46:54.236Z,9.38
2023-05-25T09:49:22.571Z,12.85
2023-05-25T09:51:49.692Z,10.98
2023-05-25T09:54:16.953Z,9.38
2023-05-25T09:56:45.122Z,8.15
2023-05-25T09:59:12.267Z,11.93
2023-05-25T10:01:41.822Z,9.27
2023-05-25T10:04:09.472Z,8.77
2023-05-25T10:06:39.138Z,11.27
2023-05-25T10:09:09.190Z,9.85
2023-05-25T10:11:38.950Z,10.15
2023-05-25T10:14:07.822Z,10.70
2023-05-25T10:16:35.490Z,9.15
2023-05-25T10:19:06.536Z,9.38
2023-05-25T10:21:34.715Z,9.23
2023-05-25T10:24:06.119Z,9.02
2023-05-25T10:26:40.358Z,10.35
2023-05-25T10:29:09.053Z,13.05
2023-05-25T10:31:37.120Z,10.13
2023-05-25T10:34:04.132Z,10.23
2023-05-25T10:36:33.610Z,10.18
2023-05-25T10:39:02.276Z,10.90
2023-05-25T10:41:30.676Z,8.30
2023-05-25T10:43:57.996Z,7.10
2023-05-25T10:46:25.262Z,7.45
2023-05-25T10:48:52.136Z,11.27
2023-05-25T10:51:20.441Z,9.27
2023-05-25T10:53:58.333Z,6.57
2023-05-25T10:56:25.411Z,8.43
2023-05-25T10:58:53.781Z,8.98
2023-05-25T11:01:21.048Z,8.25
2023-05-25T11:03:50.148Z,8.38
2023-05-25T11:06:18.228Z,9.98
2023-05-25T11:08:55.656Z,8.73
2023-05-25T11:11:22.838Z,9.77
2023-05-25T11:13:50.309Z,7.97
2023-05-25T11:16:21.355Z,8.25
2023-05-25T11:18:53.861Z,8.32
2023-05-25T11:21:41.979Z,10.02
2023-05-25T11:24:16.080Z,14.25
2023-05-25T11:26:57.780Z,8.05
2023-05-25T11:29:24.724Z,7.55
2023-05-25T11:31:56.781Z,6.85
2023-05-25T11:34:24.508Z,9.68
2023-05-25T11:36:55.251Z,7.18
2023-05-25T11:39:23.853Z,6.90
2023-05-25T11:41:54.946Z,9.82
2023-05-25T11:44:29.604Z,8.90
2023-05-25T11:47:00.768Z,11.07
2023-05-25T11:49:28.149Z,9.10
2023-05-25T11:51:57.498Z,7.30
2023-05-25T11:54:25.555Z,7.20
2023-05-25T11:56:53.275Z,9.98
2023-05-25T11:59:20.205Z,8.13
2023-05-25T12:01:58.216Z,7.85
2023-05-25T12:04:25.590Z,11.35
2023-05-25T12:06:52.914Z,15.50
2023-05-25T12:09:21.300Z,12.60
2023-05-25T12:11:48.772Z,8.35
2023-05-25T12:14:15.933Z,8.52
2023-05-25T12:16:43.290Z,7.07
2023-05-25T12:19:12.167Z,6.25
2023-05-25T12:21:40.308Z,6.13
2023-05-25T12:24:08.217Z,8.15
2023-05-25T12:26:46.526Z,7.07
2023-05-25T12:29:13.333Z,8.30
2023-05-25T12:31:40.881Z,7.15
2023-05-25T12:34:09.731Z,6.28
2023-05-25T12:36:43.231Z,7.68
2023-05-25T12:39:11.676Z,7.28
2023-05-25T12:41:46.833Z,6.55
2023-05-25T12:44:18.400Z,9.07
2023-05-25T12:46:45.587Z,5.30
2023-05-25T12:49:30.616Z,5.70
2023-05-25T12:52:00.733Z,8.07
2023-05-25T12:54:49.633Z,5.70
2023-05-25T12:57:18.045Z,7.68
2023-05-25T12:59:47.094Z,7.05
2023-05-25T13:02:15.315Z,8.25
2023-05-25T13:04:42.559Z,7.40
2023-05-25T13:07:11.431Z,7.97
2023-05-25T13:09:38.717Z,6.10
2023-05-25T13:12:06.406Z,8.88
2023-05-25T13:14:33.550Z,6.00
2023-05-25T13:17:00.615Z,9.07
2023-05-25T13:19:27.568Z,7.00
2023-05-25T13:21:54.549Z,6.72
2023-05-25T13:24:23.019Z,6.60
2023-05-25T13:26:51.167Z,9.18
2023-05-25T13:29:18.288Z,6.63
2023-05-25T13:31:45.311Z,7.93
2023-05-25T13:34:12.226Z,6.72
2023-05-25T13:36:39.039Z,5.88
2023-05-25T13:39:05.945Z,8.88
2023-05-25T13:41:34.107Z,6.28
2023-05-25T13:44:00.901Z,8.15
2023-05-25T13:46:34.778Z,6.95
2023-05-25T13:49:02.252Z,8.52
2023-05-25T13:51:29.187Z,5.85
2023-05-25T13:53:56.115Z,7.85
2023-05-25T13:56:23.017Z,5.47
2023-05-25T13:58:51.180Z,5.30
2023-05-25T14:01:18.080Z,5.80
2023-05-25T14:03:45.157Z,6.95
2023-05-25T14:06:12.111Z,6.28
2023-05-25T14:08:38.962Z,7.80
2023-05-25T14:11:05.847Z,7.22
2023-05-25T14:13:32.686Z,8.00
2023-05-25T14:16:01.288Z,6.72
2023-05-25T14:18:28.251Z,8.20
2023-05-25T14:20:55.161Z,10.68
2023-05-25T14:23:22.085Z,9.20
2023-05-25T14:25:48.994Z,7.25
2023-05-25T14:28:16.031Z,10.05
2023-05-25T14:30:42.885Z,6.43
2023-05-25T14:33:11.314Z,5.93
2023-05-25T14:35:38.868Z,7.15
2023-05-25T14:38:05.758Z,7.50
2023-05-25T14:40:32.643Z,7.15
2023-05-25T14:42:59.629Z,9.25
2023-05-25T14:45:26.483Z,8.40
2023-05-25T14:48:03.848Z,9.20
2023-05-25T14:50:41.646Z,5.90
2023-05-25T14:53:08.696Z,8.02
2023-05-25T14:55:35.721Z,7.68
2023-05-25T14:58:02.667Z,8.63
2023-05-25T15:00:30.096Z,7.20
2023-05-25T15:02:57.262Z,7.38
2023-05-25T15:05:24.440Z,7.05
2023-05-25T15:07:52.972Z,7.10
2023-05-25T15:10:20.131Z,6.72
2023-05-25T15:12:47.188Z,6.57
2023-05-25T15:15:14.349Z,6.72
2023-05-25T15:17:41.510Z,4.38
2023-05-25T15:20:09.359Z,6.72
2023-05-25T15:22:36.475Z,7.70
2023-05-25T15:25:05.545Z,7.20
2023-05-25T15:27:32.492Z,5.97
2023-05-25T15:29:59.551Z,6.75
2023-05-25T15:32:26.775Z,6.28
2023-05-25T15:34:53.827Z,6.78
2023-05-25T15:37:20.867Z,9.82
2023-05-25T15:39:47.957Z,6.53
2023-05-25T15:42:16.381Z,9.82
2023-05-25T15:44:43.310Z,8.43
2023-05-25T15:47:10.320Z,7.97
2023-05-25T15:49:37.493Z,7.88
2023-05-25T15:52:05.492Z,7.75
2023-05-25T15:54:32.445Z,5.85
2023-05-25T15:56:59.422Z,9.93
2023-05-25T15:59:27.778Z,7.22
2023-05-25T16:01:54.785Z,7.05
2023-05-25T16:04:21.905Z,6.03
2023-05-25T16:06:48.910Z,6.70
2023-05-25T16:09:15.978Z,9.20
2023-05-25T16:11:42.859Z,8.02
2023-05-25T16:14:10.019Z,8.30
2023-05-25T16:16:38.627Z,6.70
2023-05-25T16:19:05.576Z,7.88
2023-05-25T16:21:36.828Z,9.82
2023-05-25T16:24:04.409Z,12.70
2023-05-25T16:26:31.260Z,10.63
2023-05-25T16:28:58.116Z,8.30
2023-05-25T16:31:24.992Z,5.85
2023-05-25T16:33:53.209Z,7.18
2023-05-25T16:36:20.128Z,7.65
2023-05-25T16:38:47.003Z,6.55
2023-05-25T16:41:13.881Z,6.32
2023-05-25T16:43:40.951Z,8.68
2023-05-25T16:46:07.851Z,7.20
2023-05-25T16:48:34.766Z,10.77
2023-05-25T16:51:03.309Z,6.70
2023-05-25T16:53:30.218Z,8.18
2023-05-25T16:55:57.146Z,6.05
2023-05-25T16:58:24.089Z,8.13
2023-05-25T17:00:51.299Z,8.45
2023-05-25T17:03:18.410Z,6.72
2023-05-25T17:05:45.590Z,6.88
2023-05-25T17:08:14.260Z,5.75
2023-05-25T17:10:42.296Z,7.45
2023-05-25T17:13:09.457Z,5.00
2023-05-25T17:15:36.342Z,6.50
2023-05-25T17:18:03.459Z,5.32
2023-05-25T17:20:30.513Z,5.68
2023-05-25T17:22:58.061Z,7.72
2023-05-25T17:25:28.165Z,7.65
2023-05-25T17:27:55.378Z,7.05
2023-05-25T17:30:22.232Z,6.25
2023-05-25T17:32:49.306Z,6.18
2023-05-25T17:35:16.262Z,7.80
2023-05-25T17:37:43.615Z,6.22
2023-05-25T17:40:11.658Z,7.15
2023-05-25T17:42:39.865Z,6.63
2023-05-25T17:45:08.392Z,6.32
2023-05-25T17:47:35.805Z,7.93
2023-05-25T17:50:02.793Z,5.45
2023-05-25T17:52:29.681Z,7.25
2023-05-25T17:54:56.634Z,6.78
2023-05-25T17:57:23.526Z,5.97
2023-05-25T17:59:51.874Z,5.80
2023-05-25T18:02:18.901Z,6.38
2023-05-25T18:04:46.064Z,6.63
2023-05-25T18:07:12.912Z,7.93
2023-05-25T18:09:39.930Z,9.50
2023-05-25T18:12:07.188Z,6.75
2023-05-25T18:14:34.354Z,9.38
2023-05-25T18:17:02.714Z,7.53
2023-05-25T18:19:29.636Z,8.95
2023-05-25T18:21:56.553Z,9.10
2023-05-25T18:24:23.489Z,8.82
2023-05-25T18:26:50.562Z,6.65
2023-05-25T18:29:17.496Z,6.45
2023-05-25T18:31:44.587Z,6.90
2023-05-25T18:34:13.260Z,9.25
2023-05-25T18:36:40.135Z,6.40
2023-05-25T18:39:06.965Z,9.73
2023-05-25T18:41:34.017Z,9.38
2023-05-25T18:44:01.278Z,7.05
2023-05-25T18:46:28.304Z,7.35
2023-05-25T18:48:55.171Z,7.85
2023-05-25T18:51:23.717Z,10.07
2023-05-25T18:53:50.569Z,8.57
2023-05-25T18:56:17.572Z,9.15
2023-05-25T18:58:44.535Z,9.15
2023-05-25T19:01:12.492Z,9.23
2023-05-25T19:03:39.511Z,9.82
2023-05-25T19:06:06.655Z,13.15
2023-05-25T19:08:35.285Z,10.77
2023-05-25T19:11:02.387Z,8.50
2023-05-25T19:13:30.022Z,10.68
2023-05-25T19:15:57.018Z,8.30
2023-05-25T19:18:23.914Z,9.63
2023-05-25T19:20:50.981Z,13.38
2023-05-25T19:23:18.003Z,8.90
2023-05-25T19:25:46.594Z,8.85
2023-05-25T19:28:13.837Z,10.02
2023-05-25T19:30:40.692Z,9.77
2023-05-25T19:33:07.629Z,10.85
2023-05-25T19:35:34.555Z,13.63
2023-05-25T19:38:02.230Z,13.60
2023-05-25T19:40:30.823Z,13.35
2023-05-25T19:42:59.194Z,10.55
2023-05-25T19:45:26.779Z,12.13
2023-05-25T19:47:54.994Z,10.30
2023-05-25T19:50:21.995Z,10.02
2023-05-25T19:52:49.157Z,8.05
2023-05-25T19:55:16.126Z,11.23
2023-05-25T19:57:43.214Z,10.68
2023-05-25T20:00:25.283Z,10.38
2023-05-25T20:02:53.691Z,9.43
2023-05-25T20:05:20.967Z,9.98
2023-05-25T20:07:47.964Z,14.02
2023-05-25T20:10:14.895Z,8.93
2023-05-25T20:12:41.892Z,10.63
2023-05-25T20:15:09.353Z,12.35
2023-05-25T20:17:40.802Z,10.38
2023-05-25T20:20:08.322Z,9.02
2023-05-25T20:22:35.272Z,10.38
2023-05-25T20:25:03.138Z,11.23
2023-05-25T20:27:30.265Z,10.88
2023-05-25T20:29:57.888Z,10.52
2023-05-25T20:32:25.108Z,13.57
2023-05-25T20:34:54.165Z,9.32
2023-05-25T20:37:21.214Z,10.55
2023-05-25T20:39:48.851Z,9.82
2023-05-25T20:42:16.152Z,12.00
2023-05-25T20:44:42.996Z,10.18
2023-05-25T20:47:09.857Z,14.50
2023-05-25T20:49:36.688Z,14.25
2023-05-25T20:52:05.239Z,10.95
2023-05-25T20:54:32.160Z,12.50
2023-05-25T20:56:59.027Z,12.25
2023-05-25T20:59:25.806Z,12.55
2023-05-25T21:01:52.819Z,10.48
2023-05-25T21:04:20.144Z,12.15
2023-05-25T21:06:47.040Z,10.02
2023-05-25T21:09:15.300Z,13.60
2023-05-25T21:11:42.194Z,10.45
2023-05-25T21:14:09.117Z,8.93
2023-05-25T21:16:36.066Z,10.57
2023-05-25T21:19:03.182Z,11.57
2023-05-25T21:21:30.031Z,10.82
2023-05-25T21:23:56.888Z,10.40
2023-05-25T21:26:25.055Z,13.35
2023-05-25T21:28:51.888Z,13.45
2023-05-25T21:31:18.738Z,9.95
2023-05-25T21:33:45.708Z,13.98
2023-05-25T21:36:12.517Z,11.93
2023-05-25T21:38:39.530Z,8.93
2023-05-25T21:41:06.621Z,10.90
2023-05-25T21:43:34.813Z,10.65
2023-05-25T21:46:01.620Z,9.15
2023-05-25T21:48:28.424Z,11.35
2023-05-25T21:50:55.239Z,13.50
2023-05-25T21:53:22.020Z,11.30
2023-05-25T21:55:48.921Z,13.55
2023-05-25T21:58:17.568Z,10.90
2023-05-25T22:00:45.954Z,11.15
2023-05-25T22:03:12.967Z,10.13
2023-05-25T22:05:39.950Z,10.00
2023-05-25T22:08:06.886Z,9.52
2023-05-25T22:10:33.675Z,11.68
2023-05-25T22:13:01.560Z,12.63
2023-05-25T22:15:28.344Z,13.57
2023-05-25T22:17:56.595Z,10.65
2023-05-25T22:20:23.471Z,12.00
2023-05-25T22:22:50.265Z,12.85
2023-05-25T22:25:17.191Z,11.25
2023-05-25T22:27:43.992Z,10.77
2023-05-25T22:30:11.609Z,11.30
2023-05-25T22:32:38.501Z,11.65
2023-05-25T22:35:07.964Z,10.20
2023-05-25T22:37:34.749Z,14.80
2023-05-25T22:40:01.590Z,11.43
2023-05-25T22:42:28.350Z,13.60
2023-05-25T22:44:55.134Z,12.55
2023-05-25T22:47:22.022Z,11.40
2023-05-25T22:49:48.902Z,12.35
2023-05-25T22:52:17.115Z,11.95
2023-05-25T22:54:47.094Z,10.35
2023-05-25T22:57:14.109Z,12.63
2023-05-25T22:59:41.615Z,13.48
2023-05-25T23:02:08.718Z,14.38
2023-05-25T23:04:36.105Z,11.68
2023-05-25T23:07:03.064Z,11.27
2023-05-25T23:09:32.752Z,17.15
2023-05-25T23:12:00.947Z,11.98
2023-05-25T23:14:27.734Z,13.20
2023-05-25T23:16:54.499Z,11.63
2023-05-25T23:19:21.302Z,11.57
2023-05-25T23:21:48.279Z,12.38
2023-05-25T23:24:15.141Z,10.95
2023-05-25T23:26:43.969Z,14.13
2023-05-25T23:29:12.629Z,14.48
2023-05-25T23:31:42.112Z,13.65
2023-05-25T23:34:08.894Z,13.00
2023-05-25T23:36:35.721Z,13.18
2023-05-25T23:39:02.494Z,12.85
2023-05-25T23:41:31.946Z,11.15
2023-05-25T23:43:59.756Z,11.23
